sensor_id;sensor_type;location;lat;lon;timestamp;P1;durP1;ratioP1;P2;durP2;ratioP2
10275;SDS011;5183;51.190;6.820;2024-03-06T00:02:08;50.63;;;33.97;;
10275;SDS011;5183;51.190;6.820;2024-03-06T00:04:36;53.33;;;34.47;;
10275;SDS011;5183;51.190;6.820;2024-03-06T00:07:03;50.53;;;33.63;;
10275;SDS011;5183;51.190;6.820;2024-03-06T00:09:31;52.97;;;35.40;;
10275;SDS011;5183;51.190;6.820;2024-03-06T00:11:58;52.53;;;33.37;;
10275;SDS011;5183;51.190;6.820;2024-03-06T00:14:25;50.90;;;34.63;;
10275;SDS011;5183;51.190;6.820;2024-03-06T00:16:52;52.20;;;34.83;;
10275;SDS011;5183;51.190;6.820;2024-03-06T00:19:20;52.60;;;34.40;;
10275;SDS011;5183;51.190;6.820;2024-03-06T00:21:49;51.50;;;33.70;;
10275;SDS011;5183;51.190;6.820;2024-03-06T00:24:16;53.43;;;34.97;;
10275;SDS011;5183;51.190;6.820;2024-03-06T00:26:44;48.33;;;33.43;;
10275;SDS011;5183;51.190;6.820;2024-03-06T00:29:12;50.03;;;33.27;;
10275;SDS011;5183;51.190;6.820;2024-03-06T00:31:42;49.80;;;32.80;;
10275;SDS011;5183;51.190;6.820;2024-03-06T00:34:10;50.53;;;33.13;;
10275;SDS011;5183;51.190;6.820;2024-03-06T00:36:39;50.17;;;32.70;;
10275;SDS011;5183;51.190;6.820;2024-03-06T00:39:07;46.07;;;31.57;;
10275;SDS011;5183;51.190;6.820;2024-03-06T00:41:34;48.23;;;32.60;;
10275;SDS011;5183;51.190;6.820;2024-03-06T00:44:01;53.20;;;33.20;;
10275;SDS011;5183;51.190;6.820;2024-03-06T00:46:28;48.13;;;32.20;;
10275;SDS011;5183;51.190;6.820;2024-03-06T00:48:55;49.77;;;31.37;;
10275;SDS011;5183;51.190;6.820;2024-03-06T00:51:22;48.03;;;32.13;;
10275;SDS011;5183;51.190;6.820;2024-03-06T00:53:49;43.63;;;31.00;;
10275;SDS011;5183;51.190;6.820;2024-03-06T00:56:17;48.63;;;32.30;;
10275;SDS011;5183;51.190;6.820;2024-03-06T00:58:44;49.20;;;31.87;;
10275;SDS011;5183;51.190;6.820;2024-03-06T01:01:12;51.40;;;32.40;;
10275;SDS011;5183;51.190;6.820;2024-03-06T01:03:39;48.00;;;31.90;;
10275;SDS011;5183;51.190;6.820;2024-03-06T01:06:05;48.07;;;32.40;;
10275;SDS011;5183;51.190;6.820;2024-03-06T01:08:32;48.93;;;31.97;;
10275;SDS011;5183;51.190;6.820;2024-03-06T01:10:59;48.47;;;32.60;;
10275;SDS011;5183;51.190;6.820;2024-03-06T01:13:27;49.80;;;31.77;;
10275;SDS011;5183;51.190;6.820;2024-03-06T01:15:54;46.67;;;32.50;;
10275;SDS011;5183;51.190;6.820;2024-03-06T01:18:21;51.33;;;32.87;;
10275;SDS011;5183;51.190;6.820;2024-03-06T01:20:48;47.70;;;31.63;;
10275;SDS011;5183;51.190;6.820;2024-03-06T01:23:15;45.20;;;31.40;;
10275;SDS011;5183;51.190;6.820;2024-03-06T01:25:42;46.73;;;32.10;;
10275;SDS011;5183;51.190;6.820;2024-03-06T01:28:09;49.10;;;31.93;;
10275;SDS011;5183;51.190;6.820;2024-03-06T01:30:37;47.33;;;30.83;;
10275;SDS011;5183;51.190;6.820;2024-03-06T01:33:04;47.70;;;31.70;;
10275;SDS011;5183;51.190;6.820;2024-03-06T01:35:31;48.87;;;32.97;;
10275;SDS011;5183;51.190;6.820;2024-03-06T01:37:58;48.20;;;31.97;;
10275;SDS011;5183;51.190;6.820;2024-03-06T01:40:26;47.67;;;30.80;;
10275;SDS011;5183;51.190;6.820;2024-03-06T01:42:54;46.40;;;31.10;;
10275;SDS011;5183;51.190;6.820;2024-03-06T01:45:21;52.93;;;32.67;;
10275;SDS011;5183;51.190;6.820;2024-03-06T01:47:49;49.07;;;31.87;;
10275;SDS011;5183;51.190;6.820;2024-03-06T01:50:16;45.70;;;31.73;;
10275;SDS011;5183;51.190;6.820;2024-03-06T01:52:44;48.93;;;32.37;;
10275;SDS011;5183;51.190;6.820;2024-03-06T01:55:12;48.13;;;31.80;;
10275;SDS011;5183;51.190;6.820;2024-03-06T01:57:40;44.50;;;31.17;;
10275;SDS011;5183;51.190;6.820;2024-03-06T02:00:08;51.03;;;32.30;;
10275;SDS011;5183;51.190;6.820;2024-03-06T02:02:39;48.40;;;31.27;;
10275;SDS011;5183;51.190;6.820;2024-03-06T02:05:08;50.93;;;32.23;;
10275;SDS011;5183;51.190;6.820;2024-03-06T02:07:36;49.67;;;32.27;;
10275;SDS011;5183;51.190;6.820;2024-03-06T02:10:05;48.63;;;31.80;;
10275;SDS011;5183;51.190;6.820;2024-03-06T02:12:34;48.47;;;31.03;;
10275;SDS011;5183;51.190;6.820;2024-03-06T02:15:02;48.07;;;30.70;;
10275;SDS011;5183;51.190;6.820;2024-03-06T02:17:29;47.37;;;31.60;;
10275;SDS011;5183;51.190;6.820;2024-03-06T02:19:56;50.87;;;31.97;;
10275;SDS011;5183;51.190;6.820;2024-03-06T02:22:25;52.93;;;32.87;;
10275;SDS011;5183;51.190;6.820;2024-03-06T02:24:52;52.47;;;33.03;;
10275;SDS011;5183;51.190;6.820;2024-03-06T02:27:19;55.00;;;33.10;;
10275;SDS011;5183;51.190;6.820;2024-03-06T02:29:46;55.23;;;33.83;;
10275;SDS011;5183;51.190;6.820;2024-03-06T02:32:13;55.30;;;34.20;;
10275;SDS011;5183;51.190;6.820;2024-03-06T02:34:40;56.10;;;34.00;;
10275;SDS011;5183;51.190;6.820;2024-03-06T02:37:07;57.73;;;33.93;;
10275;SDS011;5183;51.190;6.820;2024-03-06T02:39:36;61.30;;;35.00;;
10275;SDS011;5183;51.190;6.820;2024-03-06T02:42:03;60.90;;;36.57;;
10275;SDS011;5183;51.190;6.820;2024-03-06T02:44:30;60.73;;;36.13;;
10275;SDS011;5183;51.190;6.820;2024-03-06T02:46:57;65.73;;;38.23;;
10275;SDS011;5183;51.190;6.820;2024-03-06T02:49:23;64.27;;;37.23;;
10275;SDS011;5183;51.190;6.820;2024-03-06T02:51:50;64.67;;;37.13;;
10275;SDS011;5183;51.190;6.820;2024-03-06T02:54:17;64.57;;;37.27;;
10275;SDS011;5183;51.190;6.820;2024-03-06T02:56:45;67.40;;;37.90;;
10275;SDS011;5183;51.190;6.820;2024-03-06T02:59:12;66.20;;;38.10;;
10275;SDS011;5183;51.190;6.820;2024-03-06T03:01:40;65.37;;;36.90;;
10275;SDS011;5183;51.190;6.820;2024-03-06T03:04:07;61.80;;;37.50;;
10275;SDS011;5183;51.190;6.820;2024-03-06T03:06:33;67.27;;;37.90;;
10275;SDS011;5183;51.190;6.820;2024-03-06T03:09:00;67.23;;;38.30;;
10275;SDS011;5183;51.190;6.820;2024-03-06T03:11:28;67.03;;;37.43;;
10275;SDS011;5183;51.190;6.820;2024-03-06T03:13:58;69.87;;;38.77;;
10275;SDS011;5183;51.190;6.820;2024-03-06T03:16:25;62.10;;;36.23;;
10275;SDS011;5183;51.190;6.820;2024-03-06T03:18:52;67.70;;;37.97;;
10275;SDS011;5183;51.190;6.820;2024-03-06T03:21:19;68.37;;;36.93;;
10275;SDS011;5183;51.190;6.820;2024-03-06T03:23:46;60.37;;;34.23;;
10275;SDS011;5183;51.190;6.820;2024-03-06T03:26:14;61.93;;;37.57;;
10275;SDS011;5183;51.190;6.820;2024-03-06T03:28:41;63.37;;;35.80;;
10275;SDS011;5183;51.190;6.820;2024-03-06T03:31:10;65.67;;;35.67;;
10275;SDS011;5183;51.190;6.820;2024-03-06T03:33:38;57.37;;;35.50;;
10275;SDS011;5183;51.190;6.820;2024-03-06T03:36:04;59.13;;;35.47;;
10275;SDS011;5183;51.190;6.820;2024-03-06T03:38:32;65.97;;;38.27;;
10275;SDS011;5183;51.190;6.820;2024-03-06T03:41:01;63.10;;;36.40;;
10275;SDS011;5183;51.190;6.820;2024-03-06T03:43:29;59.27;;;36.00;;
10275;SDS011;5183;51.190;6.820;2024-03-06T03:45:55;63.33;;;35.07;;
10275;SDS011;5183;51.190;6.820;2024-03-06T03:48:24;58.10;;;35.00;;
10275;SDS011;5183;51.190;6.820;2024-03-06T03:50:50;56.00;;;34.83;;
10275;SDS011;5183;51.190;6.820;2024-03-06T03:53:17;54.50;;;34.23;;
10275;SDS011;5183;51.190;6.820;2024-03-06T03:55:44;58.73;;;35.53;;
10275;SDS011;5183;51.190;6.820;2024-03-06T03:58:11;58.40;;;33.97;;
10275;SDS011;5183;51.190;6.820;2024-03-06T04:00:38;56.83;;;34.10;;
10275;SDS011;5183;51.190;6.820;2024-03-06T04:03:05;53.40;;;33.50;;
10275;SDS011;5183;51.190;6.820;2024-03-06T04:05:33;64.07;;;36.10;;
10275;SDS011;5183;51.190;6.820;2024-03-06T04:08:00;61.87;;;34.83;;
10275;SDS011;5183;51.190;6.820;2024-03-06T04:10:27;62.90;;;35.93;;
10275;SDS011;5183;51.190;6.820;2024-03-06T04:12:54;57.03;;;34.10;;
10275;SDS011;5183;51.190;6.820;2024-03-06T04:15:21;61.77;;;36.27;;
10275;SDS011;5183;51.190;6.820;2024-03-06T04:17:48;59.00;;;34.70;;
10275;SDS011;5183;51.190;6.820;2024-03-06T04:20:14;59.60;;;34.83;;
10275;SDS011;5183;51.190;6.820;2024-03-06T04:22:44;59.43;;;35.37;;
10275;SDS011;5183;51.190;6.820;2024-03-06T04:25:11;59.47;;;34.50;;
10275;SDS011;5183;51.190;6.820;2024-03-06T04:27:38;62.43;;;35.03;;
10275;SDS011;5183;51.190;6.820;2024-03-06T04:30:05;63.93;;;36.50;;
10275;SDS011;5183;51.190;6.820;2024-03-06T04:32:33;62.47;;;35.63;;
10275;SDS011;5183;51.190;6.820;2024-03-06T04:35:00;60.50;;;35.93;;
10275;SDS011;5183;51.190;6.820;2024-03-06T04:37:27;64.57;;;36.57;;
10275;SDS011;5183;51.190;6.820;2024-03-06T04:39:55;65.43;;;37.70;;
10275;SDS011;5183;51.190;6.820;2024-03-06T04:42:22;73.07;;;38.80;;
10275;SDS011;5183;51.190;6.820;2024-03-06T04:44:49;72.60;;;39.33;;
10275;SDS011;5183;51.190;6.820;2024-03-06T04:47:16;70.60;;;39.10;;
10275;SDS011;5183;51.190;6.820;2024-03-06T04:49:44;70.20;;;38.97;;
10275;SDS011;5183;51.190;6.820;2024-03-06T04:52:11;78.27;;;40.67;;
10275;SDS011;5183;51.190;6.820;2024-03-06T04:54:38;77.63;;;40.10;;
10275;SDS011;5183;51.190;6.820;2024-03-06T04:57:06;75.30;;;39.87;;
10275;SDS011;5183;51.190;6.820;2024-03-06T04:59:33;68.67;;;38.13;;
10275;SDS011;5183;51.190;6.820;2024-03-06T05:02:00;76.60;;;40.37;;
10275;SDS011;5183;51.190;6.820;2024-03-06T05:04:28;71.40;;;38.83;;
10275;SDS011;5183;51.190;6.820;2024-03-06T05:06:55;79.43;;;39.90;;
10275;SDS011;5183;51.190;6.820;2024-03-06T05:09:22;71.53;;;38.60;;
10275;SDS011;5183;51.190;6.820;2024-03-06T05:11:48;75.50;;;40.07;;
10275;SDS011;5183;51.190;6.820;2024-03-06T05:14:17;74.37;;;39.10;;
10275;SDS011;5183;51.190;6.820;2024-03-06T05:16:45;69.43;;;38.90;;
10275;SDS011;5183;51.190;6.820;2024-03-06T05:19:11;69.87;;;37.63;;
10275;SDS011;5183;51.190;6.820;2024-03-06T05:21:38;71.40;;;38.37;;
10275;SDS011;5183;51.190;6.820;2024-03-06T05:24:05;71.17;;;38.20;;
10275;SDS011;5183;51.190;6.820;2024-03-06T05:26:32;73.77;;;39.60;;
10275;SDS011;5183;51.190;6.820;2024-03-06T05:28:59;79.27;;;40.57;;
10275;SDS011;5183;51.190;6.820;2024-03-06T05:31:28;81.63;;;40.77;;
10275;SDS011;5183;51.190;6.820;2024-03-06T05:33:55;85.37;;;42.40;;
10275;SDS011;5183;51.190;6.820;2024-03-06T05:36:21;85.83;;;43.20;;
10275;SDS011;5183;51.190;6.820;2024-03-06T05:38:48;86.63;;;42.83;;
10275;SDS011;5183;51.190;6.820;2024-03-06T05:41:15;92.70;;;44.73;;
10275;SDS011;5183;51.190;6.820;2024-03-06T05:43:44;87.50;;;43.10;;
10275;SDS011;5183;51.190;6.820;2024-03-06T05:46:11;89.37;;;43.40;;
10275;SDS011;5183;51.190;6.820;2024-03-06T05:48:39;91.20;;;42.67;;
10275;SDS011;5183;51.190;6.820;2024-03-06T05:51:06;96.07;;;43.97;;
10275;SDS011;5183;51.190;6.820;2024-03-06T05:53:35;86.53;;;42.77;;
10275;SDS011;5183;51.190;6.820;2024-03-06T05:56:04;98.87;;;45.40;;
10275;SDS011;5183;51.190;6.820;2024-03-06T05:58:31;100.83;;;46.37;;
10275;SDS011;5183;51.190;6.820;2024-03-06T06:00:59;97.97;;;46.10;;
10275;SDS011;5183;51.190;6.820;2024-03-06T06:03:26;95.83;;;44.23;;
10275;SDS011;5183;51.190;6.820;2024-03-06T06:05:55;92.13;;;44.27;;
10275;SDS011;5183;51.190;6.820;2024-03-06T06:08:22;95.70;;;44.47;;
10275;SDS011;5183;51.190;6.820;2024-03-06T06:10:49;89.70;;;42.93;;
10275;SDS011;5183;51.190;6.820;2024-03-06T06:13:17;102.20;;;45.27;;
10275;SDS011;5183;51.190;6.820;2024-03-06T06:15:44;102.03;;;48.10;;
10275;SDS011;5183;51.190;6.820;2024-03-06T06:18:11;99.10;;;45.37;;
10275;SDS011;5183;51.190;6.820;2024-03-06T06:20:39;102.63;;;48.13;;
10275;SDS011;5183;51.190;6.820;2024-03-06T06:23:10;107.50;;;48.80;;
10275;SDS011;5183;51.190;6.820;2024-03-06T06:25:37;100.00;;;47.43;;
10275;SDS011;5183;51.190;6.820;2024-03-06T06:28:04;98.37;;;46.50;;
10275;SDS011;5183;51.190;6.820;2024-03-06T06:30:31;95.03;;;45.70;;
10275;SDS011;5183;51.190;6.820;2024-03-06T06:32:58;100.17;;;48.83;;
10275;SDS011;5183;51.190;6.820;2024-03-06T06:35:24;97.53;;;46.77;;
10275;SDS011;5183;51.190;6.820;2024-03-06T06:37:52;93.50;;;46.93;;
10275;SDS011;5183;51.190;6.820;2024-03-06T06:40:20;98.90;;;46.43;;
10275;SDS011;5183;51.190;6.820;2024-03-06T06:42:48;99.33;;;46.43;;
10275;SDS011;5183;51.190;6.820;2024-03-06T06:45:15;95.60;;;45.43;;
10275;SDS011;5183;51.190;6.820;2024-03-06T06:47:43;96.63;;;46.00;;
10275;SDS011;5183;51.190;6.820;2024-03-06T06:50:10;96.43;;;45.07;;
10275;SDS011;5183;51.190;6.820;2024-03-06T06:52:37;106.53;;;46.10;;
10275;SDS011;5183;51.190;6.820;2024-03-06T06:55:04;99.07;;;47.73;;
10275;SDS011;5183;51.190;6.820;2024-03-06T06:57:33;108.20;;;49.07;;
10275;SDS011;5183;51.190;6.820;2024-03-06T07:00:00;106.63;;;47.53;;
10275;SDS011;5183;51.190;6.820;2024-03-06T07:02:31;110.17;;;48.97;;
10275;SDS011;5183;51.190;6.820;2024-03-06T07:04:57;114.20;;;49.80;;
10275;SDS011;5183;51.190;6.820;2024-03-06T07:07:24;126.17;;;52.23;;
10275;SDS011;5183;51.190;6.820;2024-03-06T07:09:51;116.77;;;50.10;;
10275;SDS011;5183;51.190;6.820;2024-03-06T07:12:18;121.10;;;51.27;;
10275;SDS011;5183;51.190;6.820;2024-03-06T07:14:46;118.33;;;50.07;;
10275;SDS011;5183;51.190;6.820;2024-03-06T07:17:13;113.57;;;49.17;;
10275;SDS011;5183;51.190;6.820;2024-03-06T07:19:40;114.80;;;49.10;;
10275;SDS011;5183;51.190;6.820;2024-03-06T07:22:07;125.13;;;52.07;;
10275;SDS011;5183;51.190;6.820;2024-03-06T07:24:33;134.73;;;52.30;;
10275;SDS011;5183;51.190;6.820;2024-03-06T07:27:01;140.37;;;58.50;;
10275;SDS011;5183;51.190;6.820;2024-03-06T07:29:28;133.47;;;53.80;;
10275;SDS011;5183;51.190;6.820;2024-03-06T07:31:57;122.73;;;52.83;;
10275;SDS011;5183;51.190;6.820;2024-03-06T07:34:23;123.37;;;52.73;;
10275;SDS011;5183;51.190;6.820;2024-03-06T07:36:51;118.80;;;53.13;;
10275;SDS011;5183;51.190;6.820;2024-03-06T07:39:18;127.00;;;54.00;;
10275;SDS011;5183;51.190;6.820;2024-03-06T07:41:46;153.57;;;56.50;;
10275;SDS011;5183;51.190;6.820;2024-03-06T07:44:12;137.20;;;55.43;;
10275;SDS011;5183;51.190;6.820;2024-03-06T07:46:39;137.57;;;55.93;;
10275;SDS011;5183;51.190;6.820;2024-03-06T07:49:08;132.90;;;52.87;;
10275;SDS011;5183;51.190;6.820;2024-03-06T07:51:35;134.30;;;54.43;;
10275;SDS011;5183;51.190;6.820;2024-03-06T07:54:01;138.20;;;54.80;;
10275;SDS011;5183;51.190;6.820;2024-03-06T07:56:29;131.63;;;52.20;;
10275;SDS011;5183;51.190;6.820;2024-03-06T07:58:56;133.07;;;53.40;;
10275;SDS011;5183;51.190;6.820;2024-03-06T08:01:23;132.67;;;54.67;;
10275;SDS011;5183;51.190;6.820;2024-03-06T08:03:50;125.83;;;52.17;;
10275;SDS011;5183;51.190;6.820;2024-03-06T08:06:19;123.43;;;50.40;;
10275;SDS011;5183;51.190;6.820;2024-03-06T08:08:46;118.43;;;49.90;;
10275;SDS011;5183;51.190;6.820;2024-03-06T08:11:13;107.93;;;48.10;;
10275;SDS011;5183;51.190;6.820;2024-03-06T08:13:40;108.70;;;48.67;;
10275;SDS011;5183;51.190;6.820;2024-03-06T08:16:07;107.33;;;49.13;;
10275;SDS011;5183;51.190;6.820;2024-03-06T08:18:34;107.63;;;47.53;;
10275;SDS011;5183;51.190;6.820;2024-03-06T08:21:02;102.80;;;47.13;;
10275;SDS011;5183;51.190;6.820;2024-03-06T08:23:32;94.40;;;45.87;;
10275;SDS011;5183;51.190;6.820;2024-03-06T08:25:59;100.17;;;47.93;;
10275;SDS011;5183;51.190;6.820;2024-03-06T08:28:26;95.53;;;47.27;;
10275;SDS011;5183;51.190;6.820;2024-03-06T08:30:53;96.43;;;46.17;;
10275;SDS011;5183;51.190;6.820;2024-03-06T08:33:20;94.30;;;45.23;;
10275;SDS011;5183;51.190;6.820;2024-03-06T08:35:47;80.13;;;42.20;;
10275;SDS011;5183;51.190;6.820;2024-03-06T08:38:14;78.17;;;42.43;;
10275;SDS011;5183;51.190;6.820;2024-03-06T08:40:43;69.83;;;39.83;;
10275;SDS011;5183;51.190;6.820;2024-03-06T08:43:11;77.60;;;41.30;;
10275;SDS011;5183;51.190;6.820;2024-03-06T08:45:40;65.63;;;39.27;;
10275;SDS011;5183;51.190;6.820;2024-03-06T08:48:07;65.03;;;37.17;;
10275;SDS011;5183;51.190;6.820;2024-03-06T08:50:34;62.33;;;38.10;;
10275;SDS011;5183;51.190;6.820;2024-03-06T08:53:01;58.70;;;35.63;;
10275;SDS011;5183;51.190;6.820;2024-03-06T08:55:28;66.43;;;37.50;;
10275;SDS011;5183;51.190;6.820;2024-03-06T08:57:56;60.57;;;36.47;;
10275;SDS011;5183;51.190;6.820;2024-03-06T09:00:23;55.73;;;35.80;;
10275;SDS011;5183;51.190;6.820;2024-03-06T09:02:51;62.00;;;37.33;;
10275;SDS011;5183;51.190;6.820;2024-03-06T09:05:19;60.33;;;37.37;;
10275;SDS011;5183;51.190;6.820;2024-03-06T09:07:47;55.77;;;34.47;;
10275;SDS011;5183;51.190;6.820;2024-03-06T09:10:14;57.80;;;37.50;;
10275;SDS011;5183;51.190;6.820;2024-03-06T09:12:40;52.47;;;34.57;;
10275;SDS011;5183;51.190;6.820;2024-03-06T09:15:09;48.90;;;32.20;;
10275;SDS011;5183;51.190;6.820;2024-03-06T09:17:36;45.83;;;32.17;;
10275;SDS011;5183;51.190;6.820;2024-03-06T09:20:04;42.23;;;30.07;;
10275;SDS011;5183;51.190;6.820;2024-03-06T09:22:35;45.20;;;31.03;;
10275;SDS011;5183;51.190;6.820;2024-03-06T09:25:03;42.93;;;30.23;;
10275;SDS011;5183;51.190;6.820;2024-03-06T09:27:31;42.13;;;28.37;;
10275;SDS011;5183;51.190;6.820;2024-03-06T09:29:58;42.00;;;29.63;;
10275;SDS011;5183;51.190;6.820;2024-03-06T09:32:26;42.50;;;29.07;;
10275;SDS011;5183;51.190;6.820;2024-03-06T09:34:53;41.23;;;29.13;;
10275;SDS011;5183;51.190;6.820;2024-03-06T09:37:20;40.20;;;28.03;;
10275;SDS011;5183;51.190;6.820;2024-03-06T09:39:46;36.57;;;26.00;;
10275;SDS011;5183;51.190;6.820;2024-03-06T09:42:13;36.57;;;26.93;;
10275;SDS011;5183;51.190;6.820;2024-03-06T09:44:41;35.87;;;26.33;;
10275;SDS011;5183;51.190;6.820;2024-03-06T09:47:08;33.90;;;25.13;;
10275;SDS011;5183;51.190;6.820;2024-03-06T09:49:40;38.80;;;26.07;;
10275;SDS011;5183;51.190;6.820;2024-03-06T09:52:08;36.43;;;26.37;;
10275;SDS011;5183;51.190;6.820;2024-03-06T09:54:35;34.70;;;25.13;;
10275;SDS011;5183;51.190;6.820;2024-03-06T09:57:04;33.97;;;25.00;;
10275;SDS011;5183;51.190;6.820;2024-03-06T09:59:31;36.47;;;26.27;;
10275;SDS011;5183;51.190;6.820;2024-03-06T10:01:58;33.30;;;25.03;;
10275;SDS011;5183;51.190;6.820;2024-03-06T10:04:28;38.53;;;26.20;;
10275;SDS011;5183;51.190;6.820;2024-03-06T10:06:58;35.73;;;25.67;;
10275;SDS011;5183;51.190;6.820;2024-03-06T10:09:27;43.17;;;29.17;;
10275;SDS011;5183;51.190;6.820;2024-03-06T10:11:56;43.73;;;30.53;;
10275;SDS011;5183;51.190;6.820;2024-03-06T10:14:23;40.93;;;28.77;;
10275;SDS011;5183;51.190;6.820;2024-03-06T10:16:54;40.73;;;28.17;;
10275;SDS011;5183;51.190;6.820;2024-03-06T10:19:22;40.43;;;28.03;;
10275;SDS011;5183;51.190;6.820;2024-03-06T10:21:52;42.13;;;30.23;;
10275;SDS011;5183;51.190;6.820;2024-03-06T10:24:21;42.97;;;29.43;;
10275;SDS011;5183;51.190;6.820;2024-03-06T10:26:49;38.90;;;28.20;;
10275;SDS011;5183;51.190;6.820;2024-03-06T10:29:17;45.33;;;30.43;;
10275;SDS011;5183;51.190;6.820;2024-03-06T10:31:48;46.00;;;31.27;;
10275;SDS011;5183;51.190;6.820;2024-03-06T10:34:16;46.50;;;31.67;;
10275;SDS011;5183;51.190;6.820;2024-03-06T10:36:45;51.93;;;34.13;;
10275;SDS011;5183;51.190;6.820;2024-03-06T10:39:12;47.87;;;32.77;;
10275;SDS011;5183;51.190;6.820;2024-03-06T10:41:42;48.93;;;32.07;;
10275;SDS011;5183;51.190;6.820;2024-03-06T10:44:10;48.47;;;33.10;;
10275;SDS011;5183;51.190;6.820;2024-03-06T10:46:40;49.27;;;33.40;;
10275;SDS011;5183;51.190;6.820;2024-03-06T10:49:10;51.13;;;34.07;;
10275;SDS011;5183;51.190;6.820;2024-03-06T10:51:38;49.43;;;34.03;;
10275;SDS011;5183;51.190;6.820;2024-03-06T10:54:08;54.10;;;34.07;;
10275;SDS011;5183;51.190;6.820;2024-03-06T10:56:37;49.67;;;33.43;;
10275;SDS011;5183;51.190;6.820;2024-03-06T10:59:08;47.83;;;33.20;;
10275;SDS011;5183;51.190;6.820;2024-03-06T11:01:37;49.17;;;33.60;;
10275;SDS011;5183;51.190;6.820;2024-03-06T11:04:06;47.07;;;33.50;;
10275;SDS011;5183;51.190;6.820;2024-03-06T11:06:33;52.57;;;35.83;;
10275;SDS011;5183;51.190;6.820;2024-03-06T11:09:00;53.67;;;34.80;;
10275;SDS011;5183;51.190;6.820;2024-03-06T11:11:27;49.43;;;33.37;;
10275;SDS011;5183;51.190;6.820;2024-03-06T11:13:54;46.93;;;35.07;;
10275;SDS011;5183;51.190;6.820;2024-03-06T11:19:21;53.33;;;35.07;;
10275;SDS011;5183;51.190;6.820;2024-03-06T11:21:47;47.63;;;33.40;;
10275;SDS011;5183;51.190;6.820;2024-03-06T11:24:15;50.43;;;35.03;;
10275;SDS011;5183;51.190;6.820;2024-03-06T11:26:45;51.07;;;35.40;;
10275;SDS011;5183;51.190;6.820;2024-03-06T11:29:15;49.63;;;34.40;;
10275;SDS011;5183;51.190;6.820;2024-03-06T11:31:55;49.20;;;34.20;;
10275;SDS011;5183;51.190;6.820;2024-03-06T11:34:28;46.87;;;33.33;;
10275;SDS011;5183;51.190;6.820;2024-03-06T11:36:56;49.77;;;34.07;;
10275;SDS011;5183;51.190;6.820;2024-03-06T11:39:24;48.10;;;34.27;;
10275;SDS011;5183;51.190;6.820;2024-03-06T11:41:54;43.40;;;31.67;;
10275;SDS011;5183;51.190;6.820;2024-03-06T11:44:22;44.63;;;31.63;;
10275;SDS011;5183;51.190;6.820;2024-03-06T11:46:50;43.37;;;31.20;;
10275;SDS011;5183;51.190;6.820;2024-03-06T11:49:24;47.03;;;33.17;;
10275;SDS011;5183;51.190;6.820;2024-03-06T11:51:55;43.13;;;30.80;;
10275;SDS011;5183;51.190;6.820;2024-03-06T11:54:23;44.30;;;31.10;;
10275;SDS011;5183;51.190;6.820;2024-03-06T11:56:52;41.93;;;30.67;;
10275;SDS011;5183;51.190;6.820;2024-03-06T11:59:20;42.27;;;29.40;;
10275;SDS011;5183;51.190;6.820;2024-03-06T12:01:48;37.53;;;27.77;;
10275;SDS011;5183;51.190;6.820;2024-03-06T12:04:15;37.27;;;26.83;;
10275;SDS011;5183;51.190;6.820;2024-03-06T12:06:42;30.97;;;24.03;;
10275;SDS011;5183;51.190;6.820;2024-03-06T12:09:11;33.13;;;24.97;;
10275;SDS011;5183;51.190;6.820;2024-03-06T12:11:37;34.10;;;24.53;;
10275;SDS011;5183;51.190;6.820;2024-03-06T12:14:05;31.93;;;24.13;;
10275;SDS011;5183;51.190;6.820;2024-03-06T12:16:32;32.90;;;25.37;;
10275;SDS011;5183;51.190;6.820;2024-03-06T12:18:59;29.87;;;23.40;;
10275;SDS011;5183;51.190;6.820;2024-03-06T12:21:30;34.67;;;24.90;;
10275;SDS011;5183;51.190;6.820;2024-03-06T12:24:04;27.90;;;22.03;;
10275;SDS011;5183;51.190;6.820;2024-03-06T12:26:33;30.97;;;21.80;;
10275;SDS011;5183;51.190;6.820;2024-03-06T12:29:06;33.43;;;23.30;;
10275;SDS011;5183;51.190;6.820;2024-03-06T12:31:35;31.73;;;23.57;;
10275;SDS011;5183;51.190;6.820;2024-03-06T12:34:03;31.70;;;24.27;;
10275;SDS011;5183;51.190;6.820;2024-03-06T12:36:30;28.80;;;22.27;;
10275;SDS011;5183;51.190;6.820;2024-03-06T12:39:01;32.43;;;22.50;;
10275;SDS011;5183;51.190;6.820;2024-03-06T12:41:39;28.90;;;22.37;;
10275;SDS011;5183;51.190;6.820;2024-03-06T12:44:06;28.33;;;20.83;;
10275;SDS011;5183;51.190;6.820;2024-03-06T12:46:33;24.67;;;19.37;;
10275;SDS011;5183;51.190;6.820;2024-03-06T12:49:00;23.97;;;18.90;;
10275;SDS011;5183;51.190;6.820;2024-03-06T12:51:27;26.33;;;18.90;;
10275;SDS011;5183;51.190;6.820;2024-03-06T12:53:54;24.87;;;20.03;;
10275;SDS011;5183;51.190;6.820;2024-03-06T12:56:21;24.77;;;20.20;;
10275;SDS011;5183;51.190;6.820;2024-03-06T12:58:51;24.03;;;19.77;;
10275;SDS011;5183;51.190;6.820;2024-03-06T13:01:18;24.00;;;18.70;;
10275;SDS011;5183;51.190;6.820;2024-03-06T13:03:45;26.83;;;20.50;;
10275;SDS011;5183;51.190;6.820;2024-03-06T13:06:12;27.37;;;20.60;;
10275;SDS011;5183;51.190;6.820;2024-03-06T13:08:39;24.03;;;18.77;;
10275;SDS011;5183;51.190;6.820;2024-03-06T13:11:06;25.77;;;19.70;;
10275;SDS011;5183;51.190;6.820;2024-03-06T13:13:34;28.97;;;20.33;;
10275;SDS011;5183;51.190;6.820;2024-03-06T13:16:02;24.50;;;18.33;;
10275;SDS011;5183;51.190;6.820;2024-03-06T13:18:30;22.10;;;17.80;;
10275;SDS011;5183;51.190;6.820;2024-03-06T13:20:57;25.10;;;18.27;;
10275;SDS011;5183;51.190;6.820;2024-03-06T13:23:25;23.43;;;18.57;;
10275;SDS011;5183;51.190;6.820;2024-03-06T13:25:52;25.37;;;19.00;;
10275;SDS011;5183;51.190;6.820;2024-03-06T13:28:19;24.60;;;19.10;;
10275;SDS011;5183;51.190;6.820;2024-03-06T13:30:47;26.63;;;19.47;;
10275;SDS011;5183;51.190;6.820;2024-03-06T13:33:16;24.53;;;18.80;;
10275;SDS011;5183;51.190;6.820;2024-03-06T13:35:43;24.00;;;18.53;;
10275;SDS011;5183;51.190;6.820;2024-03-06T13:38:10;25.47;;;18.03;;
10275;SDS011;5183;51.190;6.820;2024-03-06T13:40:37;20.53;;;17.17;;
10275;SDS011;5183;51.190;6.820;2024-03-06T13:43:04;20.90;;;16.77;;
10275;SDS011;5183;51.190;6.820;2024-03-06T13:45:32;20.77;;;16.73;;
10275;SDS011;5183;51.190;6.820;2024-03-06T13:47:59;18.20;;;15.07;;
10275;SDS011;5183;51.190;6.820;2024-03-06T13:50:27;18.93;;;15.00;;
10275;SDS011;5183;51.190;6.820;2024-03-06T13:52:54;19.10;;;15.27;;
10275;SDS011;5183;51.190;6.820;2024-03-06T13:55:21;18.60;;;14.50;;
10275;SDS011;5183;51.190;6.820;2024-03-06T13:57:48;18.20;;;13.90;;
10275;SDS011;5183;51.190;6.820;2024-03-06T14:00:15;14.67;;;11.53;;
10275;SDS011;5183;51.190;6.820;2024-03-06T14:02:43;14.40;;;11.93;;
10275;SDS011;5183;51.190;6.820;2024-03-06T14:05:12;15.70;;;12.43;;
10275;SDS011;5183;51.190;6.820;2024-03-06T14:07:41;14.17;;;11.00;;
10275;SDS011;5183;51.190;6.820;2024-03-06T14:10:08;12.77;;;10.47;;
10275;SDS011;5183;51.190;6.820;2024-03-06T14:12:35;14.30;;;10.73;;
10275;SDS011;5183;51.190;6.820;2024-03-06T14:15:02;15.60;;;12.83;;
10275;SDS011;5183;51.190;6.820;2024-03-06T14:17:31;15.07;;;11.90;;
10275;SDS011;5183;51.190;6.820;2024-03-06T14:19:58;15.93;;;13.07;;
10275;SDS011;5183;51.190;6.820;2024-03-06T14:22:25;12.30;;;10.60;;
10275;SDS011;5183;51.190;6.820;2024-03-06T14:24:54;15.50;;;11.43;;
10275;SDS011;5183;51.190;6.820;2024-03-06T14:27:21;15.53;;;12.50;;
10275;SDS011;5183;51.190;6.820;2024-03-06T14:29:48;13.63;;;12.03;;
10275;SDS011;5183;51.190;6.820;2024-03-06T14:32:15;13.00;;;10.50;;
10275;SDS011;5183;51.190;6.820;2024-03-06T14:34:45;11.07;;;9.80;;
10275;SDS011;5183;51.190;6.820;2024-03-06T14:37:12;11.63;;;9.20;;
10275;SDS011;5183;51.190;6.820;2024-03-06T14:39:39;13.27;;;11.07;;